Time;durP1;ratioP1;P1;durP2;ratioP2;P2;SDS_P1;SDS_P2;PMS_P1;PMS_P2;Temp;Humidity;BMP_temperature;BMP_pressure;BME280_temperature;BME280_humidity;BME280_pressure;Samples;Min_cycle;Max_cycle;Signal;HPM_P1;HPM_P2
2023/07/28 00:02:04;;;;;;;6.13;3.60;;;17.10;99.90;;;;;;5023382;28;20026;-75
2023/07/28 00:04:29;;;;;;;8.30;3.58;;;17.10;99.90;;;;;;5023033;28;20030;-73
2023/07/28 00:06:55;;;;;;;8.65;3.47;;;17.10;99.90;;;;;;5022764;28;20900;-73
2023/07/28 00:09:22;;;;;;;6.38;3.38;;;17.10;99.90;;;;;;5021714;28;20056;-74
2023/07/28 00:11:48;;;;;;;12.68;3.97;;;17.10;99.90;;;;;;5022557;28;20153;-75
2023/07/28 00:14:14;;;;;;;9.57;3.50;;;17.10;99.90;;;;;;5020751;28;20100;-76
2023/07/28 00:16:40;;;;;;;7.68;3.42;;;17.10;99.90;;;;;;5022859;28;20025;-77
2023/07/28 00:19:05;;;;;;;8.57;3.72;;;17.10;99.90;;;;;;5022763;28;20026;-78
2023/07/28 00:21:31;;;;;;;8.48;3.92;;;17.10;99.90;;;;;;5023524;28;20038;-77
2023/07/28 00:23:57;;;;;;;11.00;4.32;;;17.10;99.90;;;;;;5022423;28;20113;-78
2023/07/28 00:26:23;;;;;;;13.23;4.55;;;17.10;99.90;;;;;;5022620;28;20038;-77
2023/07/28 00:28:48;;;;;;;13.63;4.60;;;17.10;99.90;;;;;;5021658;28;20037;-76
2023/07/28 00:31:14;;;;;;;15.07;5.45;;;17.10;99.90;;;;;;5020993;28;20030;-77
2023/07/28 00:33:39;;;;;;;15.50;5.60;;;17.00;99.90;;;;;;5021535;28;20022;-78
2023/07/28 00:36:05;;;;;;;15.13;5.60;;;17.10;99.90;;;;;;5021589;28;20084;-76
2023/07/28 00:38:30;;;;;;;13.13;5.28;;;17.10;99.90;;;;;;5021414;28;20057;-73
2023/07/28 00:40:56;;;;;;;20.90;5.70;;;17.10;99.90;;;;;;5022509;28;20025;-74
2023/07/28 00:43:22;;;;;;;20.95;5.78;;;17.10;99.90;;;;;;5021209;28;20041;-74
2023/07/28 00:45:48;;;;;;;14.02;6.03;;;17.10;99.90;;;;;;5022139;28;20067;-74
2023/07/28 00:48:15;;;;;;;13.30;5.57;;;17.10;99.90;;;;;;5020330;28;20037;-73
2023/07/28 00:50:44;;;;;;;16.85;5.90;;;17.10;99.90;;;;;;5022161;28;20049;-77
2023/07/28 00:53:09;;;;;;;24.40;6.68;;;17.00;99.90;;;;;;5022203;28;20044;-74
2023/07/28 00:55:35;;;;;;;20.67;6.07;;;17.10;99.90;;;;;;5021105;28;20018;-72
2023/07/28 00:58:01;;;;;;;17.15;5.70;;;17.10;99.90;;;;;;5022845;28;20060;-72
2023/07/28 01:00:26;;;;;;;18.92;6.38;;;17.00;99.90;;;;;;5017169;28;20026;-70
2023/07/28 01:02:52;;;;;;;25.20;6.80;;;17.00;99.90;;;;;;5021405;28;20051;-73
2023/07/28 01:05:19;;;;;;;21.17;6.53;;;17.00;99.90;;;;;;5020815;28;20548;-73
2023/07/28 01:07:51;;;;;;;21.48;6.53;;;17.10;99.90;;;;;;5020694;28;20046;-73
2023/07/28 01:10:30;;;;;;;20.40;6.50;;;17.00;99.90;;;;;;5022295;28;20090;-73
2023/07/28 01:12:55;;;;;;;27.95;7.18;;;17.00;99.90;;;;;;5022113;28;20030;-72
2023/07/28 01:15:21;;;;;;;26.58;8.30;;;17.00;99.90;;;;;;5019815;28;20489;-73
2023/07/28 01:17:47;;;;;;;29.77;8.18;;;17.00;99.90;;;;;;5022184;28;20026;-72
2023/07/28 01:20:13;;;;;;;32.60;8.25;;;17.00;99.90;;;;;;5020774;28;20041;-73
2023/07/28 01:23:04;;;;;;;30.98;8.80;;;17.00;99.90;;;;;;5021923;28;20022;-73
2023/07/28 01:25:59;;;;;;;33.85;9.30;;;17.00;99.90;;;;;;5021024;28;20030;-72
2023/07/28 01:28:26;;;;;;;35.72;10.23;;;17.00;99.90;;;;;;5021568;28;20048;-71
2023/07/28 01:30:51;;;;;;;30.40;9.07;;;17.00;99.90;;;;;;5020562;28;20041;-72
2023/07/28 01:33:17;;;;;;;34.78;9.85;;;17.00;99.90;;;;;;5020660;28;20022;-72
2023/07/28 01:35:42;;;;;;;35.70;9.50;;;17.00;99.90;;;;;;5021575;28;20026;-73
2023/07/28 01:38:08;;;;;;;34.17;9.15;;;17.00;99.90;;;;;;5020842;28;20030;-74
2023/07/28 01:40:34;;;;;;;38.78;9.85;;;17.00;99.90;;;;;;5021814;28;20050;-72
2023/07/28 01:42:59;;;;;;;33.63;8.90;;;17.00;99.90;;;;;;5021784;28;20026;-73
2023/07/28 01:45:25;;;;;;;36.63;10.38;;;17.00;99.90;;;;;;5021842;28;20034;-73
2023/07/28 01:47:51;;;;;;;36.85;10.00;;;17.00;99.90;;;;;;5021869;28;20090;-74
2023/07/28 01:50:16;;;;;;;36.97;9.73;;;17.00;99.90;;;;;;5021492;28;20028;-72
2023/07/28 01:52:42;;;;;;;36.25;10.35;;;17.00;99.90;;;;;;5021440;28;20052;-73
2023/07/28 01:55:07;;;;;;;49.13;11.07;;;17.00;99.90;;;;;;5020332;28;20022;-74
2023/07/28 01:57:34;;;;;;;43.17;10.60;;;17.00;99.90;;;;;;5020536;28;20030;-73
2023/07/28 02:00:00;;;;;;;53.38;10.55;;;17.00;99.90;;;;;;5020530;28;20025;-72
2023/07/28 02:02:25;;;;;;;34.22;9.13;;;17.00;99.90;;;;;;5019817;28;20029;-72
2023/07/28 02:04:51;;;;;;;32.63;9.52;;;17.00;99.90;;;;;;5020313;28;20034;-71
2023/07/28 02:07:17;;;;;;;27.60;9.25;;;17.00;99.90;;;;;;5021466;28;20034;-73
2023/07/28 02:09:42;;;;;;;29.60;9.48;;;16.90;99.90;;;;;;5020091;28;20025;-73
2023/07/28 02:12:08;;;;;;;30.35;10.05;;;16.90;99.90;;;;;;5021529;28;20029;-72
2023/07/28 02:14:34;;;;;;;39.63;10.80;;;16.90;99.90;;;;;;5020516;28;20106;-74
2023/07/28 02:16:59;;;;;;;37.42;10.40;;;16.90;99.90;;;;;;5023009;28;20034;-74
2023/07/28 02:19:25;;;;;;;44.88;11.23;;;16.90;99.90;;;;;;5023397;28;20090;-71
2023/07/28 02:21:51;;;;;;;41.05;12.70;;;16.90;99.90;;;;;;5024686;28;20033;-72
2023/07/28 02:24:16;;;;;;;44.17;13.02;;;16.90;99.90;;;;;;5023381;28;20026;-72
2023/07/28 02:26:42;;;;;;;54.30;13.43;;;16.90;99.90;;;;;;5023663;28;20049;-73
2023/07/28 02:29:07;;;;;;;53.20;14.85;;;16.90;99.90;;;;;;5024032;28;20030;-71
2023/07/28 02:31:33;;;;;;;63.03;15.55;;;16.90;99.90;;;;;;5024757;28;20072;-73
2023/07/28 02:33:59;;;;;;;53.78;13.90;;;17.00;99.90;;;;;;5023908;28;20054;-72
2023/07/28 02:36:24;;;;;;;63.70;15.70;;;17.00;99.90;;;;;;5025024;28;20076;-73
2023/07/28 02:38:50;;;;;;;74.18;16.25;;;17.00;99.90;;;;;;5023149;28;20036;-72
2023/07/28 02:41:15;;;;;;;57.60;16.40;;;17.00;99.90;;;;;;5023457;28;20344;-73
2023/07/28 02:43:41;;;;;;;62.25;16.33;;;17.00;99.90;;;;;;5024804;28;20093;-73
2023/07/28 02:46:07;;;;;;;63.28;17.95;;;17.00;99.90;;;;;;5024218;28;20045;-72
2023/07/28 02:48:32;;;;;;;59.63;17.17;;;17.00;99.90;;;;;;5023704;28;20049;-73
2023/07/28 02:50:58;;;;;;;58.00;17.67;;;17.00;99.90;;;;;;5023216;28;20030;-71
2023/07/28 02:53:24;;;;;;;66.63;17.65;;;17.00;99.90;;;;;;5022785;28;20372;-72
2023/07/28 02:55:49;;;;;;;56.05;17.13;;;17.00;99.90;;;;;;5024541;28;20451;-73
2023/07/28 02:58:15;;;;;;;53.28;17.45;;;17.00;99.90;;;;;;5024547;28;20518;-72
2023/07/28 03:00:42;;;;;;;72.60;19.50;;;17.00;99.90;;;;;;5022752;28;20038;-72
2023/07/28 03:03:12;;;;;;;68.57;20.08;;;17.00;99.90;;;;;;5024735;28;20022;-71
2023/07/28 03:05:39;;;;;;;71.10;20.63;;;17.00;99.90;;;;;;5023144;28;20475;-71
2023/07/28 03:08:05;;;;;;;78.82;20.38;;;17.00;99.90;;;;;;5023813;28;20033;-72
2023/07/28 03:10:32;;;;;;;77.50;20.17;;;17.00;99.90;;;;;;5024417;28;20082;-72
2023/07/28 03:12:57;;;;;;;87.57;21.02;;;17.00;99.90;;;;;;5022505;28;20037;-72
2023/07/28 03:15:23;;;;;;;83.70;21.17;;;17.00;99.90;;;;;;5024017;28;20022;-71
2023/07/28 03:17:50;;;;;;;60.13;18.83;;;17.00;99.90;;;;;;5024220;28;20022;-71
2023/07/28 03:20:16;;;;;;;73.93;19.15;;;17.00;99.90;;;;;;5023813;28;20021;-72
2023/07/28 03:22:41;;;;;;;80.63;20.13;;;17.00;99.90;;;;;;5023832;28;20057;-72
2023/07/28 03:25:08;;;;;;;67.07;19.02;;;17.00;99.90;;;;;;5024327;28;20036;-71
2023/07/28 03:27:34;;;;;;;79.55;20.40;;;17.00;99.90;;;;;;5023136;28;20034;-74
2023/07/28 03:30:00;;;;;;;87.40;20.38;;;17.00;99.90;;;;;;5022700;28;20026;-75
2023/07/28 03:32:25;;;;;;;68.18;19.70;;;17.00;99.90;;;;;;5022426;28;20030;-75
2023/07/28 03:34:51;;;;;;;67.15;18.98;;;17.00;99.90;;;;;;5022074;28;20057;-75
2023/07/28 03:37:17;;;;;;;77.80;19.95;;;17.00;99.90;;;;;;5021894;28;20030;-76
2023/07/28 03:39:42;;;;;;;78.95;20.13;;;17.00;99.90;;;;;;5022405;28;20061;-75
2023/07/28 03:42:08;;;;;;;79.00;19.33;;;17.00;99.90;;;;;;5023556;28;20025;-75
2023/07/28 03:44:34;;;;;;;69.55;19.10;;;17.00;99.90;;;;;;5023832;28;20014;-76
2023/07/28 03:47:00;;;;;;;61.08;17.75;;;17.00;99.90;;;;;;5022096;28;20496;-75
2023/07/28 03:49:25;;;;;;;71.53;19.67;;;17.00;99.90;;;;;;5021923;28;20061;-76
2023/07/28 03:51:52;;;;;;;78.47;18.55;;;17.00;99.90;;;;;;5023119;28;20050;-75
2023/07/28 03:54:17;;;;;;;75.63;19.52;;;17.00;99.90;;;;;;5022071;28;20089;-75
2023/07/28 03:56:43;;;;;;;70.40;19.10;;;17.00;99.90;;;;;;5021833;28;20049;-73
2023/07/28 03:59:08;;;;;;;76.50;19.83;;;17.00;99.90;;;;;;5023840;28;20030;-75
2023/07/28 04:01:34;;;;;;;70.03;18.48;;;17.00;99.90;;;;;;5022107;28;20501;-74
2023/07/28 04:04:03;;;;;;;47.97;15.45;;;17.00;99.90;;;;;;5023038;28;20040;-72
2023/07/28 04:06:50;;;;;;;54.58;16.02;;;17.00;99.90;;;;;;5023336;28;20039;-73
2023/07/28 04:09:17;;;;;;;51.88;14.98;;;17.00;99.90;;;;;;5023186;28;20046;-73
2023/07/28 04:11:43;;;;;;;57.58;16.27;;;17.00;99.90;;;;;;5021120;28;20022;-72
2023/07/28 04:14:08;;;;;;;48.97;15.10;;;17.00;99.90;;;;;;5020709;28;20064;-72
2023/07/28 04:16:34;;;;;;;64.93;15.80;;;17.00;99.90;;;;;;5020825;28;20021;-73
2023/07/28 04:19:00;;;;;;;56.40;15.35;;;17.00;99.90;;;;;;5021915;28;20684;-74
2023/07/28 04:21:26;;;;;;;48.88;14.23;;;16.90;99.90;;;;;;5021634;28;20038;-73
2023/07/28 04:23:51;;;;;;;51.33;14.23;;;17.00;99.90;;;;;;5021368;28;20018;-73
2023/07/28 04:26:17;;;;;;;59.55;14.85;;;17.00;99.90;;;;;;5022997;28;20049;-71
2023/07/28 04:28:43;;;;;;;69.15;14.98;;;16.90;99.90;;;;;;5020113;28;20060;-73
2023/07/28 04:31:10;;;;;;;55.10;13.82;;;16.90;99.90;;;;;;5022705;28;20038;-72
2023/07/28 04:33:36;;;;;;;35.20;12.77;;;16.90;99.90;;;;;;5021241;28;20048;-75
2023/07/28 04:36:05;;;;;;;29.75;11.10;;;16.90;99.90;;;;;;5023290;28;20049;-73
2023/07/28 04:38:30;;;;;;;41.67;11.65;;;16.90;99.90;;;;;;5022320;28;20022;-73
2023/07/28 04:40:56;;;;;;;33.67;11.32;;;16.90;99.90;;;;;;5022584;28;20022;-73
2023/07/28 04:43:21;;;;;;;41.53;11.18;;;16.90;99.90;;;;;;5021234;28;20390;-73
2023/07/28 04:45:47;;;;;;;29.85;10.48;;;16.90;99.90;;;;;;5022028;28;20058;-73
2023/07/28 04:48:13;;;;;;;28.65;9.50;;;16.90;99.90;;;;;;5022462;28;20049;-73
2023/07/28 04:50:38;;;;;;;25.83;9.73;;;16.90;99.90;;;;;;5021262;28;20478;-74
2023/07/28 04:53:04;;;;;;;31.67;10.07;;;16.90;99.90;;;;;;5022273;28;20391;-74
2023/07/28 04:55:29;;;;;;;25.63;9.88;;;16.90;99.90;;;;;;5021729;28;20033;-72
2023/07/28 04:57:56;;;;;;;29.95;10.00;;;17.00;99.90;;;;;;5021550;28;20037;-73
2023/07/28 05:00:22;;;;;;;26.27;10.75;;;17.00;99.90;;;;;;5020629;28;20778;-73
2023/07/28 05:02:48;;;;;;;26.05;10.57;;;17.00;99.90;;;;;;5019650;28;20033;-74
2023/07/28 05:05:14;;;;;;;30.35;11.23;;;17.00;99.90;;;;;;5021061;28;20022;-74
2023/07/28 05:07:40;;;;;;;34.35;11.45;;;17.00;99.90;;;;;;5022178;28;20080;-73
2023/07/28 05:10:06;;;;;;;34.25;11.73;;;17.00;99.90;;;;;;5021513;28;20067;-73
2023/07/28 05:12:31;;;;;;;33.35;11.77;;;17.00;99.90;;;;;;5020892;28;20030;-73
2023/07/28 05:14:57;;;;;;;32.08;10.93;;;17.10;99.90;;;;;;5021961;28;20040;-73
2023/07/28 05:17:22;;;;;;;32.92;10.93;;;17.10;99.90;;;;;;5021263;28;20037;-73
2023/07/28 05:19:50;;;;;;;42.30;12.27;;;17.10;99.90;;;;;;5020822;28;20030;-74
2023/07/28 05:22:15;;;;;;;44.60;12.40;;;17.10;99.90;;;;;;5020652;28;20058;-70
2023/07/28 05:24:42;;;;;;;41.03;12.05;;;17.10;99.90;;;;;;5020682;28;20033;-74
2023/07/28 05:27:07;;;;;;;42.95;11.95;;;17.20;99.90;;;;;;5019725;28;20046;-71
2023/07/28 05:29:33;;;;;;;53.55;13.00;;;17.20;99.90;;;;;;5019613;28;20050;-72
2023/07/28 05:32:01;;;;;;;42.63;11.73;;;17.20;99.90;;;;;;5020127;28;20625;-72
2023/07/28 05:34:27;;;;;;;30.38;10.45;;;17.20;99.90;;;;;;5018236;28;20042;-71
2023/07/28 05:36:53;;;;;;;27.45;9.32;;;17.20;99.90;;;;;;5021095;28;20034;-70
2023/07/28 05:39:18;;;;;;;34.60;11.40;;;17.20;99.90;;;;;;5019968;28;20048;-69
2023/07/28 05:41:44;;;;;;;32.95;10.45;;;17.30;99.90;;;;;;5019275;28;20041;-70
2023/07/28 05:44:09;;;;;;;35.45;10.27;;;17.30;99.90;;;;;;5017307;28;20052;-70
2023/07/28 05:46:35;;;;;;;24.85;9.13;;;17.30;99.90;;;;;;5019417;28;20041;-72
2023/07/28 05:49:01;;;;;;;32.30;9.57;;;17.30;99.90;;;;;;5018977;28;20038;-69
2023/07/28 05:51:27;;;;;;;33.15;10.55;;;17.30;99.90;;;;;;5019167;28;20044;-70
2023/07/28 05:53:52;;;;;;;27.95;9.68;;;17.30;99.90;;;;;;5021985;28;20101;-70
2023/07/28 05:56:18;;;;;;;24.63;9.23;;;17.30;99.90;;;;;;5023186;28;20044;-70
2023/07/28 05:58:45;;;;;;;28.45;9.27;;;17.40;99.90;;;;;;5021052;28;20026;-71
2023/07/28 06:01:11;;;;;;;30.75;10.60;;;17.40;99.90;;;;;;5023099;28;20575;-70
2023/07/28 06:03:37;;;;;;;30.80;9.80;;;17.40;99.90;;;;;;5023606;28;20022;-71
2023/07/28 06:06:03;;;;;;;64.78;11.15;;;17.40;99.90;;;;;;5025861;28;20069;-73
2023/07/28 06:08:29;;;;;;;23.73;8.48;;;17.50;99.90;;;;;;5025766;28;20807;-71
2023/07/28 06:10:54;;;;;;;28.70;9.02;;;17.50;99.90;;;;;;5025087;28;20025;-71
2023/07/28 06:13:20;;;;;;;30.33;9.27;;;17.50;99.90;;;;;;5023932;28;20048;-72
2023/07/28 06:15:46;;;;;;;28.17;8.85;;;17.50;99.90;;;;;;5024020;28;20026;-72
2023/07/28 06:18:12;;;;;;;24.40;8.40;;;17.60;99.90;;;;;;5025205;28;20061;-72
2023/07/28 06:20:37;;;;;;;18.73;7.15;;;17.60;99.90;;;;;;5025708;28;20022;-72
2023/07/28 06:23:03;;;;;;;26.15;8.07;;;17.60;99.90;;;;;;5025168;28;20089;-73
2023/07/28 06:25:29;;;;;;;20.40;7.55;;;17.60;99.90;;;;;;5023878;28;20022;-73
2023/07/28 06:27:54;;;;;;;17.05;7.35;;;17.60;99.90;;;;;;5024905;28;20083;-71
2023/07/28 06:30:20;;;;;;;18.38;6.80;;;17.60;99.90;;;;;;5024834;28;20422;-69
2023/07/28 06:32:46;;;;;;;27.35;7.53;;;17.60;99.90;;;;;;5023785;28;20052;-70
2023/07/28 06:35:11;;;;;;;27.85;7.55;;;17.60;99.90;;;;;;5024027;28;20026;-70
2023/07/28 06:37:38;;;;;;;16.40;6.32;;;17.50;99.90;;;;;;5023494;28;20026;-70
2023/07/28 06:40:09;;;;;;;17.73;6.65;;;17.60;99.90;;;;;;5023955;28;20041;-68
2023/07/28 06:42:35;;;;;;;15.40;6.20;;;17.60;99.90;;;;;;5022783;28;20026;-71
2023/07/28 06:45:01;;;;;;;16.83;6.05;;;17.50;99.90;;;;;;5024801;28;20034;-69
2023/07/28 06:47:27;;;;;;;15.50;5.88;;;17.60;99.90;;;;;;5024120;28;20026;-68
2023/07/28 06:49:52;;;;;;;18.00;6.22;;;17.60;99.90;;;;;;5023651;28;20064;-71
2023/07/28 06:52:18;;;;;;;12.20;5.05;;;17.60;99.90;;;;;;5022206;28;20049;-70
2023/07/28 06:54:43;;;;;;;15.57;5.68;;;17.70;99.90;;;;;;5022723;28;20121;-69
2023/07/28 06:57:09;;;;;;;12.13;5.13;;;17.70;99.90;;;;;;5023615;28;20033;-71
2023/07/28 06:59:34;;;;;;;13.73;5.10;;;17.70;99.90;;;;;;5023944;28;20053;-70
2023/07/28 07:02:00;;;;;;;15.77;5.82;;;17.70;99.90;;;;;;5023638;28;20041;-68
2023/07/28 07:04:26;;;;;;;23.50;6.07;;;17.60;99.90;;;;;;5022923;28;20026;-69
2023/07/28 07:06:51;;;;;;;17.60;6.28;;;17.60;99.90;;;;;;5024146;28;20034;-71
2023/07/28 07:09:17;;;;;;;17.77;6.22;;;17.60;99.90;;;;;;5023367;28;20056;-69
2023/07/28 07:11:42;;;;;;;20.25;6.57;;;17.60;99.90;;;;;;5022773;28;20026;-73
2023/07/28 07:14:08;;;;;;;17.80;6.30;;;17.70;99.90;;;;;;5019725;28;20037;-69
2023/07/28 07:16:34;;;;;;;24.52;6.78;;;17.60;99.90;;;;;;5023620;28;20081;-71
2023/07/28 07:19:00;;;;;;;20.15;6.75;;;17.60;99.90;;;;;;5023612;28;20486;-71
2023/07/28 07:21:27;;;;;;;27.00;7.63;;;17.60;99.90;;;;;;5022195;28;20129;-71
2023/07/28 07:23:53;;;;;;;20.90;7.20;;;17.60;99.90;;;;;;5024193;28;20034;-71
2023/07/28 07:26:19;;;;;;;59.17;8.93;;;17.60;99.90;;;;;;5022852;28;20068;-73
2023/07/28 07:28:45;;;;;;;46.20;11.80;;;17.60;99.90;;;;;;5021658;28;20090;-72
2023/07/28 07:31:14;;;;;;;42.75;10.50;;;17.60;99.90;;;;;;5022291;28;20061;-72
2023/07/28 07:33:41;;;;;;;49.42;11.05;;;17.60;99.90;;;;;;5023793;28;20026;-73
2023/07/28 07:36:15;;;;;;;152.70;15.38;;;17.50;99.90;;;;;;5023330;28;20033;-73
2023/07/28 07:38:41;;;;;;;64.75;11.55;;;17.50;99.90;;;;;;5021924;28;20128;-73
2023/07/28 07:41:08;;;;;;;120.93;14.02;;;17.50;99.90;;;;;;5022251;28;20061;-73
2023/07/28 07:43:34;;;;;;;41.35;8.73;;;17.50;99.90;;;;;;5023614;28;20024;-73
2023/07/28 07:45:59;;;;;;;32.72;8.65;;;17.50;99.90;;;;;;5023532;28;20065;-73
2023/07/28 07:48:25;;;;;;;73.32;10.50;;;17.50;99.90;;;;;;5022116;28;20084;-73
2023/07/28 07:50:51;;;;;;;34.10;8.40;;;17.50;99.90;;;;;;5023590;28;20033;-73
2023/07/28 07:53:17;;;;;;;30.30;7.65;;;17.50;99.90;;;;;;5022155;28;20128;-73
2023/07/28 07:55:43;;;;;;;28.55;6.50;;;17.50;99.90;;;;;;5022635;28;20069;-73
2023/07/28 07:58:08;;;;;;;16.45;5.60;;;17.50;99.90;;;;;;5020432;28;20025;-73
2023/07/28 08:00:36;;;;;;;33.35;7.18;;;17.50;99.90;;;;;;5022457;28;20034;-72
2023/07/28 08:03:02;;;;;;;16.90;5.13;;;17.50;99.90;;;;;;5021314;28;20089;-72
2023/07/28 08:05:28;;;;;;;23.45;5.85;;;17.50;99.90;;;;;;5022388;28;20050;-71
2023/07/28 08:07:54;;;;;;;23.58;5.72;;;17.50;99.90;;;;;;5021376;28;21407;-71
2023/07/28 08:10:20;;;;;;;20.40;4.93;;;17.50;99.90;;;;;;5021645;28;20014;-70
2023/07/28 08:12:47;;;;;;;11.95;3.95;;;17.50;99.90;;;;;;5020939;28;20030;-72
2023/07/28 08:15:13;;;;;;;20.65;5.00;;;17.50;99.90;;;;;;5021722;28;20081;-73
2023/07/28 08:17:39;;;;;;;15.13;4.18;;;17.60;99.90;;;;;;5023188;28;20065;-73
2023/07/28 08:20:09;;;;;;;12.88;4.20;;;17.60;99.90;;;;;;5021059;28;20076;-73
2023/07/28 08:22:35;;;;;;;27.10;5.18;;;17.60;99.90;;;;;;5021334;28;20014;-72
2023/07/28 08:25:00;;;;;;;13.57;3.85;;;17.60;99.90;;;;;;5020141;28;20062;-73
2023/07/28 08:27:26;;;;;;;8.32;3.25;;;17.60;99.90;;;;;;5021344;28;20069;-72
2023/07/28 08:29:51;;;;;;;10.35;3.25;;;17.60;99.90;;;;;;5020312;28;20394;-73
2023/07/28 08:32:17;;;;;;;12.40;3.78;;;17.60;99.90;;;;;;5021468;28;20022;-72
2023/07/28 08:34:43;;;;;;;10.70;3.38;;;17.60;99.90;;;;;;5019857;28;20061;-72
2023/07/28 08:37:08;;;;;;;12.25;3.53;;;17.70;99.90;;;;;;5019523;28;20028;-72
2023/07/28 08:39:34;;;;;;;9.90;3.28;;;17.70;99.90;;;;;;5019688;28;20021;-72
2023/07/28 08:42:04;;;;;;;11.00;3.22;;;17.80;99.90;;;;;;5021140;28;20112;-71
2023/07/28 08:44:34;;;;;;;9.95;3.63;;;17.70;99.90;;;;;;5022534;28;20061;-71
2023/07/28 08:47:06;;;;;;;13.30;4.10;;;17.80;99.90;;;;;;5022784;28;20773;-71
2023/07/28 08:49:35;;;;;;;10.52;3.97;;;17.90;99.90;;;;;;5021032;28;20046;-70
2023/07/28 08:52:01;;;;;;;16.63;4.47;;;17.90;99.90;;;;;;5022733;28;20053;-72
2023/07/28 08:54:27;;;;;;;11.20;4.03;;;17.90;99.90;;;;;;5022752;28;20033;-71
2023/07/28 08:56:52;;;;;;;12.90;4.65;;;17.90;99.90;;;;;;5018941;28;20483;-71
2023/07/28 08:59:26;;;;;;;20.77;5.47;;;18.00;99.90;;;;;;5021179;28;20021;-73
2023/07/28 09:01:53;;;;;;;19.52;5.85;;;18.00;99.90;;;;;;5020046;28;20034;-71
2023/07/28 09:04:20;;;;;;;13.50;5.45;;;18.10;99.90;;;;;;5022136;28;20022;-70
2023/07/28 09:06:46;;;;;;;12.80;5.05;;;18.10;99.90;;;;;;5021306;28;20518;-69
2023/07/28 09:09:13;;;;;;;11.23;5.10;;;18.20;99.90;;;;;;5019277;28;20018;-71
2023/07/28 09:11:53;;;;;;;12.23;5.45;;;18.20;99.90;;;;;;5022191;28;20057;-71
2023/07/28 09:14:23;;;;;;;15.25;5.60;;;18.20;99.90;;;;;;5022019;28;20466;-69
2023/07/28 09:16:49;;;;;;;12.38;5.22;;;18.20;99.90;;;;;;5021661;28;20033;-70
2023/07/28 09:19:15;;;;;;;12.95;5.28;;;18.20;99.90;;;;;;5020062;28;20399;-72
2023/07/28 09:21:44;;;;;;;14.73;6.28;;;18.30;99.90;;;;;;5022336;28;20022;-72
2023/07/28 09:24:11;;;;;;;13.57;5.68;;;18.40;99.90;;;;;;5019946;28;20028;-70
2023/07/28 09:26:41;;;;;;;18.23;8.05;;;18.60;99.90;;;;;;5021287;28;20136;-70
2023/07/28 09:29:20;;;;;;;18.92;8.38;;;18.80;99.90;;;;;;5022601;28;20085;-73
2023/07/28 09:31:48;;;;;;;23.67;10.07;;;19.00;99.90;;;;;;5020536;28;20594;-71
2023/07/28 09:34:25;;;;;;;23.65;10.82;;;19.10;99.90;;;;;;5020777;28;20038;-72
2023/07/28 09:36:53;;;;;;;29.10;12.68;;;19.30;99.90;;;;;;5020578;28;20977;-72
2023/07/28 09:39:20;;;;;;;32.95;14.57;;;19.30;99.90;;;;;;5019789;28;20077;-71
2023/07/28 09:41:46;;;;;;;29.63;15.77;;;19.50;99.90;;;;;;5021412;28;20022;-73
2023/07/28 09:44:12;;;;;;;34.55;16.35;;;19.50;99.90;;;;;;5018432;28;20030;-76
2023/07/28 09:46:52;;;;;;;34.58;16.13;;;19.50;99.90;;;;;;5018044;28;20050;-73
2023/07/28 09:49:42;;;;;;;36.13;16.45;;;19.40;99.90;;;;;;5018748;28;20104;-73
2023/07/28 09:52:14;;;;;;;38.95;16.95;;;19.30;99.90;;;;;;5015297;28;20547;-72
2023/07/28 09:54:41;;;;;;;40.58;19.48;;;19.30;99.90;;;;;;5016166;28;20530;-73
2023/07/28 09:57:13;;;;;;;35.22;18.80;;;19.30;99.90;;;;;;5017799;28;20069;-70
2023/07/28 09:59:40;;;;;;;36.63;18.23;;;19.50;99.90;;;;;;5021303;28;20045;-72
2023/07/28 10:02:07;;;;;;;42.03;19.38;;;19.60;99.90;;;;;;5020026;28;20053;-71
2023/07/28 10:04:33;;;;;;;38.58;13.93;;;19.80;99.90;;;;;;5022110;28;20044;-70
2023/07/28 10:07:01;;;;;;;29.55;11.82;;;19.80;99.90;;;;;;5019207;28;20046;-73
2023/07/28 10:09:28;;;;;;;24.42;9.63;;;19.70;99.90;;;;;;5019663;28;20033;-71
2023/07/28 10:11:55;;;;;;;10.48;6.65;;;19.50;99.90;;;;;;5021772;28;20037;-71
2023/07/28 10:14:37;;;;;;;8.63;5.13;;;19.40;99.90;;;;;;5019151;28;20082;-73
2023/07/28 10:17:04;;;;;;;8.75;5.00;;;19.20;99.90;;;;;;5020357;28;20025;-72
2023/07/28 10:19:34;;;;;;;10.00;5.18;;;18.90;99.90;;;;;;5017419;28;20037;-73
2023/07/28 10:22:07;;;;;;;13.88;5.55;;;18.80;99.90;;;;;;5018163;28;20036;-73
2023/07/28 10:25:00;;;;;;;15.52;7.05;;;18.70;99.90;;;;;;5017346;28;22437;-71
2023/07/28 10:27:38;;;;;;;12.57;6.30;;;18.60;99.90;;;;;;5019565;28;20140;-72
2023/07/28 10:30:12;;;;;;;13.88;6.75;;;18.50;99.90;;;;;;5018539;28;20030;-72
2023/07/28 10:32:50;;;;;;;12.47;6.90;;;18.50;99.90;;;;;;5018884;28;20038;-74
2023/07/28 10:35:21;;;;;;;13.32;7.30;;;18.50;99.90;;;;;;5019108;28;20025;-73
2023/07/28 10:37:47;;;;;;;20.95;7.95;;;18.60;99.90;;;;;;5020773;28;20120;-72
2023/07/28 10:40:35;;;;;;;16.08;8.13;;;18.70;99.90;;;;;;5021386;28;20439;-72
2023/07/28 10:43:03;;;;;;;18.30;8.57;;;19.00;99.90;;;;;;5021816;28;20033;-71
2023/07/28 10:45:30;;;;;;;16.63;8.50;;;19.10;99.90;;;;;;5021511;28;20026;-75
2023/07/28 10:47:59;;;;;;;16.52;8.57;;;19.20;99.90;;;;;;5022010;28;20054;-74
2023/07/28 10:50:30;;;;;;;17.50;8.88;;;19.50;99.90;;;;;;5023654;28;20026;-73
2023/07/28 10:52:56;;;;;;;14.98;8.18;;;19.70;99.90;;;;;;5022160;28;20046;-74
2023/07/28 10:55:23;;;;;;;16.65;8.50;;;19.80;99.90;;;;;;5023803;28;20033;-73
2023/07/28 10:57:51;;;;;;;11.25;7.10;;;19.90;99.90;;;;;;5022660;28;20105;-73
2023/07/28 11:00:18;;;;;;;15.18;6.30;;;20.00;99.90;;;;;;5024309;28;20021;-73
2023/07/28 11:02:46;;;;;;;14.52;7.32;;;20.00;99.90;;;;;;5024166;28;20378;-73
2023/07/28 11:05:18;;;;;;;17.95;7.93;;;20.10;99.90;;;;;;5022466;28;20041;-72
2023/07/28 11:07:44;;;;;;;13.63;7.05;;;20.10;99.90;;;;;;5022328;28;20041;-73
2023/07/28 11:10:15;;;;;;;13.55;7.60;;;20.00;99.90;;;;;;5024587;28;20057;-72
2023/07/28 11:12:44;;;;;;;12.68;6.63;;;20.10;99.90;;;;;;5022994;28;20034;-73
2023/07/28 11:15:11;;;;;;;13.30;7.65;;;20.20;99.90;;;;;;5022864;28;20068;-74
2023/07/28 11:17:39;;;;;;;18.42;9.90;;;20.30;99.90;;;;;;5023969;28;20025;-74
2023/07/28 11:20:18;;;;;;;11.75;7.78;;;20.50;99.90;;;;;;5022981;28;20129;-76
2023/07/28 11:22:44;;;;;;;15.20;8.20;;;20.50;99.90;;;;;;5023430;28;20030;-74
2023/07/28 11:25:11;;;;;;;12.85;6.55;;;20.50;99.90;;;;;;5023229;28;20022;-73
2023/07/28 11:27:37;;;;;;;11.00;6.32;;;20.30;99.90;;;;;;5023511;28;20042;-74
2023/07/28 11:30:04;;;;;;;8.13;5.40;;;20.00;99.90;;;;;;5021593;28;20085;-72
2023/07/28 11:32:35;;;;;;;10.15;6.25;;;19.80;99.90;;;;;;5023330;28;20089;-72
2023/07/28 11:35:09;;;;;;;9.00;6.30;;;19.70;99.90;;;;;;5023957;28;20095;-73
2023/07/28 11:37:35;;;;;;;9.95;6.53;;;19.60;99.90;;;;;;5022316;28;20045;-73
2023/07/28 11:40:06;;;;;;;11.18;6.22;;;19.60;99.90;;;;;;5024190;28;20450;-72
2023/07/28 11:42:44;;;;;;;10.45;6.80;;;19.80;99.90;;;;;;5022685;28;20033;-73
2023/07/28 11:45:11;;;;;;;11.38;7.13;;;19.90;99.90;;;;;;5023264;28;20022;-73
2023/07/28 11:47:37;;;;;;;12.32;6.65;;;20.00;99.90;;;;;;5022558;28;20044;-73
2023/07/28 11:50:03;;;;;;;10.38;6.40;;;20.00;99.90;;;;;;5023124;28;20053;-75
2023/07/28 11:52:34;;;;;;;11.73;6.97;;;20.00;99.90;;;;;;5022064;28;20114;-74
2023/07/28 11:55:01;;;;;;;9.80;6.28;;;20.10;99.90;;;;;;5023723;28;20045;-73
2023/07/28 11:57:30;;;;;;;15.80;7.30;;;20.00;99.90;;;;;;5022386;28;20030;-75
2023/07/28 11:59:56;;;;;;;8.82;6.50;;;20.00;99.90;;;;;;5023304;28;20029;-73
2023/07/28 12:02:28;;;;;;;12.35;6.93;;;19.90;99.90;;;;;;5022922;28;20022;-72
2023/07/28 12:04:57;;;;;;;8.60;6.50;;;19.90;99.90;;;;;;5021982;28;20030;-73
2023/07/28 12:07:31;;;;;;;11.98;6.07;;;19.90;99.90;;;;;;5022185;28;20034;-72
2023/07/28 12:10:01;;;;;;;9.10;6.32;;;19.80;99.90;;;;;;5021285;28;20091;-73
2023/07/28 12:12:29;;;;;;;11.27;6.20;;;19.80;99.90;;;;;;5023124;28;20589;-77
2023/07/28 12:14:58;;;;;;;10.50;7.00;;;19.80;99.90;;;;;;5021421;28;20113;-74
2023/07/28 12:17:27;;;;;;;10.00;6.53;;;19.80;99.90;;;;;;5022826;28;20021;-72
2023/07/28 12:20:13;;;;;;;11.02;6.60;;;19.90;99.90;;;;;;5021454;28;20029;-71
2023/07/28 12:22:40;;;;;;;9.52;6.07;;;19.90;99.90;;;;;;5023259;28;20026;-72
2023/07/28 12:25:06;;;;;;;10.10;6.00;;;20.00;99.90;;;;;;5021660;28;20060;-74
2023/07/28 12:27:32;;;;;;;11.63;6.05;;;20.10;99.90;;;;;;5023411;28;20573;-73
2023/07/28 12:29:58;;;;;;;9.88;6.07;;;20.20;99.90;;;;;;5023063;28;20033;-72
2023/07/28 12:32:23;;;;;;;13.60;6.50;;;20.30;99.90;;;;;;5022283;28;20037;-72
2023/07/28 12:34:50;;;;;;;10.32;6.20;;;20.50;99.90;;;;;;5019129;28;20022;-74